createdAt,value
2022-11-17T00:01:45.143Z,10.60
2022-11-17T00:04:12.848Z,10.60
2022-11-17T00:06:40.674Z,10.60
2022-11-17T00:09:17.225Z,10.60
2022-11-17T00:12:00.335Z,10.50
2022-11-17T00:14:36.612Z,10.50
2022-11-17T00:17:06.363Z,10.50
2022-11-17T00:19:48.108Z,10.60
2022-11-17T00:22:15.850Z,10.70
2022-11-17T00:24:43.528Z,10.60
2022-11-17T00:27:13.324Z,10.50
2022-11-17T00:29:41.011Z,10.50
2022-11-17T00:32:27.234Z,10.40
2022-11-17T00:34:55.042Z,10.30
2022-11-17T00:37:23.139Z,10.30
2022-11-17T00:39:50.900Z,10.30
2022-11-17T00:42:20.456Z,10.40
2022-11-17T00:44:48.328Z,10.40
2022-11-17T00:47:16.088Z,10.40
2022-11-17T00:49:43.820Z,10.40
2022-11-17T00:52:11.760Z,10.40
2022-11-17T00:54:39.525Z,10.50
2022-11-17T00:57:07.218Z,10.40
2022-11-17T00:59:36.269Z,10.40
2022-11-17T01:02:04.020Z,10.40
2022-11-17T01:04:31.816Z,10.50
2022-11-17T01:06:59.538Z,10.60
2022-11-17T01:09:27.300Z,10.70
2022-11-17T01:11:55.017Z,10.70
2022-11-17T01:14:24.396Z,10.70
2022-11-17T01:16:54.612Z,10.70
2022-11-17T01:19:23.680Z,10.70
2022-11-17T01:21:51.570Z,10.60
2022-11-17T01:24:19.397Z,10.60
2022-11-17T01:26:47.689Z,10.60
2022-11-17T01:29:17.892Z,10.70
2022-11-17T01:31:50.147Z,10.70
2022-11-17T01:34:19.257Z,10.80
2022-11-17T01:37:00.998Z,10.90
2022-11-17T01:39:30.149Z,11.00
2022-11-17T01:41:59.132Z,11.00
2022-11-17T01:44:52.170Z,11.00
2022-11-17T01:47:24.490Z,11.10
2022-11-17T01:49:57.026Z,11.10
2022-11-17T01:52:25.922Z,11.20
2022-11-17T01:54:56.292Z,11.20
2022-11-17T01:57:29.208Z,11.10
2022-11-17T02:00:00.228Z,11.10
2022-11-17T02:02:29.184Z,11.10
2022-11-17T02:05:07.628Z,11.20
2022-11-17T02:07:38.721Z,11.20
2022-11-17T02:10:07.839Z,11.30
2022-11-17T02:12:37.124Z,11.30
2022-11-17T02:15:05.962Z,11.20
2022-11-17T02:17:37.911Z,11.20
2022-11-17T02:20:11.907Z,11.30
2022-11-17T02:22:55.651Z,11.50
2022-11-17T02:25:35.199Z,11.60
2022-11-17T02:28:14.294Z,11.70
2022-11-17T02:30:51.371Z,11.80
2022-11-17T02:33:26.241Z,11.90
2022-11-17T02:36:03.690Z,11.90
2022-11-17T02:38:36.599Z,11.90
2022-11-17T02:41:12.558Z,12.00
2022-11-17T02:44:03.948Z,11.90
2022-11-17T02:46:38.691Z,11.80
2022-11-17T02:49:12.592Z,11.70
2022-11-17T02:51:42.137Z,11.60
2022-11-17T02:54:11.034Z,11.50
2022-11-17T02:56:42.716Z,11.30
2022-11-17T02:59:14.564Z,11.10
2022-11-17T03:02:01.184Z,11.00
2022-11-17T03:04:36.862Z,11.00
2022-11-17T03:07:17.263Z,11.10
2022-11-17T03:09:50.557Z,11.00
2022-11-17T03:12:24.223Z,11.00
2022-11-17T03:15:02.958Z,11.10
2022-11-17T03:17:36.224Z,11.10
2022-11-17T03:20:09.325Z,11.10
2022-11-17T03:22:44.626Z,11.10
2022-11-17T03:25:19.181Z,11.00
2022-11-17T03:27:50.533Z,10.90
2022-11-17T03:30:22.458Z,10.80
2022-11-17T03:32:53.296Z,10.80
2022-11-17T03:35:26.822Z,10.70
2022-11-17T03:37:59.385Z,10.70
2022-11-17T03:40:29.965Z,10.80
2022-11-17T03:43:00.873Z,10.80
2022-11-17T03:45:32.610Z,10.80
2022-11-17T03:48:04.528Z,10.70
2022-11-17T03:50:37.430Z,10.70
2022-11-17T03:53:06.938Z,10.80
2022-11-17T03:55:40.737Z,10.70
2022-11-17T03:58:16.617Z,10.80
2022-11-17T04:00:47.205Z,10.70
2022-11-17T04:03:16.344Z,10.70
2022-11-17T04:05:44.246Z,10.70
2022-11-17T04:08:12.009Z,10.70
2022-11-17T04:10:53.665Z,10.70
2022-11-17T04:13:35.701Z,10.70
2022-11-17T04:16:05.951Z,10.80
2022-11-17T04:18:33.760Z,10.80
2022-11-17T04:21:02.128Z,10.80
2022-11-17T04:23:29.820Z,10.80
2022-11-17T04:26:12.237Z,10.90
2022-11-17T04:28:43.172Z,10.90
2022-11-17T04:31:14.445Z,10.90
2022-11-17T04:33:45.342Z,11.00
2022-11-17T04:36:15.622Z,10.90
2022-11-17T04:38:44.108Z,10.80
2022-11-17T04:41:27.689Z,10.80
2022-11-17T04:43:55.968Z,10.70
2022-11-17T04:46:26.194Z,10.70
2022-11-17T04:48:54.945Z,10.70
2022-11-17T04:51:23.544Z,10.60
2022-11-17T04:53:51.895Z,10.70
2022-11-17T04:56:20.498Z,10.70
2022-11-17T04:58:49.148Z,10.80
2022-11-17T05:01:18.621Z,10.80
2022-11-17T05:03:49.114Z,11.00
2022-11-17T05:06:20.155Z,11.00
2022-11-17T05:08:48.334Z,11.10
2022-11-17T05:11:30.945Z,11.20
2022-11-17T05:13:58.793Z,11.30
2022-11-17T05:16:41.465Z,11.30
2022-11-17T05:19:12.680Z,11.40
2022-11-17T05:21:40.559Z,11.40
2022-11-17T05:24:08.417Z,11.50
2022-11-17T05:26:37.722Z,11.60
2022-11-17T05:29:07.573Z,11.60
2022-11-17T05:31:35.902Z,11.50
2022-11-17T05:34:05.248Z,11.60
2022-11-17T05:36:35.497Z,11.60
2022-11-17T05:39:03.666Z,11.60
2022-11-17T05:41:31.666Z,11.80
2022-11-17T05:43:59.974Z,11.90
2022-11-17T05:46:28.435Z,12.10
2022-11-17T05:48:56.190Z,12.30
2022-11-17T05:51:25.633Z,12.40
2022-11-17T05:53:54.837Z,12.40
2022-11-17T05:56:30.546Z,12.40
2022-11-17T05:59:04.302Z,12.50
2022-11-17T06:01:35.507Z,12.50
2022-11-17T06:04:05.475Z,12.50
2022-11-17T06:06:35.290Z,12.40
2022-11-17T06:09:04.963Z,12.40
2022-11-17T06:11:32.850Z,12.40
2022-11-17T06:14:00.519Z,12.40
2022-11-17T06:16:31.819Z,12.40
2022-11-17T06:19:05.949Z,12.40
2022-11-17T06:22:04.471Z,12.50
2022-11-17T06:24:25.049Z,12.60
2022-11-17T06:26:55.657Z,12.70
2022-11-17T06:29:27.223Z,12.70
2022-11-17T06:31:56.745Z,12.80
2022-11-17T06:34:25.432Z,12.80
2022-11-17T06:36:53.437Z,12.80
2022-11-17T06:39:24.266Z,13.00
2022-11-17T06:41:53.296Z,13.00
2022-11-17T06:44:21.014Z,13.00
2022-11-17T06:46:49.290Z,12.90
2022-11-17T06:49:17.383Z,12.80
2022-11-17T06:51:45.680Z,12.80
2022-11-17T06:54:14.523Z,12.80
2022-11-17T06:56:43.706Z,12.80
2022-11-17T06:59:14.161Z,12.90
2022-11-17T07:01:41.927Z,12.90
2022-11-17T07:04:09.641Z,12.90
2022-11-17T07:06:40.158Z,12.90
2022-11-17T07:09:07.997Z,13.00
2022-11-17T07:11:36.950Z,13.10
2022-11-17T07:14:04.700Z,13.10
2022-11-17T07:16:33.738Z,13.10
2022-11-17T07:19:03.581Z,13.10
2022-11-17T07:21:31.783Z,13.30
2022-11-17T07:23:59.674Z,13.40
2022-11-17T07:26:27.566Z,13.40
2022-11-17T07:28:55.567Z,13.50
2022-11-17T07:31:23.435Z,13.50
2022-11-17T07:33:54.810Z,13.60
2022-11-17T07:36:22.597Z,13.60
2022-11-17T07:38:50.326Z,13.70
2022-11-17T07:41:18.091Z,13.80
2022-11-17T07:43:45.925Z,13.70
2022-11-17T07:46:15.475Z,13.80
2022-11-17T07:48:44.340Z,13.80
2022-11-17T07:51:13.988Z,13.80
2022-11-17T07:53:41.846Z,13.90
2022-11-17T07:56:11.813Z,13.90
2022-11-17T07:58:40.660Z,13.90
2022-11-17T08:01:09.705Z,13.90
2022-11-17T08:03:37.640Z,13.90
2022-11-17T08:06:07.954Z,13.90
2022-11-17T08:08:38.200Z,14.00
2022-11-17T08:11:08.400Z,14.00
2022-11-17T08:13:38.594Z,14.00
2022-11-17T08:16:08.024Z,14.00
2022-11-17T08:18:36.843Z,14.00
2022-11-17T08:21:06.065Z,14.00
2022-11-17T08:23:34.654Z,14.00
2022-11-17T08:26:04.838Z,14.00
2022-11-17T08:28:33.655Z,14.00
2022-11-17T08:31:02.429Z,14.00
2022-11-17T08:33:30.177Z,14.00
2022-11-17T08:35:58.279Z,14.00
2022-11-17T08:38:28.845Z,14.00
2022-11-17T08:40:56.716Z,14.00
2022-11-17T08:43:25.921Z,14.00
2022-11-17T08:45:54.268Z,14.00
2022-11-17T08:48:22.291Z,14.00
2022-11-17T08:50:50.797Z,14.00
2022-11-17T08:53:20.304Z,14.00
2022-11-17T08:55:48.114Z,14.00
2022-11-17T08:58:15.957Z,14.00
2022-11-17T09:00:47.157Z,14.00
2022-11-17T09:03:15.605Z,13.90
2022-11-17T09:05:47.605Z,13.90
2022-11-17T09:11:07.500Z,13.80
2022-11-17T09:13:35.623Z,13.70
2022-11-17T09:16:06.832Z,13.80
2022-11-17T09:18:35.363Z,13.80
2022-11-17T09:21:05.131Z,13.80
2022-11-17T09:23:33.555Z,13.90
2022-11-17T09:26:07.507Z,13.90
2022-11-17T09:28:36.162Z,13.90
2022-11-17T09:31:09.496Z,13.90
2022-11-17T09:33:37.956Z,13.90
2022-11-17T09:36:07.176Z,14.00
2022-11-17T09:38:38.419Z,13.90
2022-11-17T09:41:23.754Z,13.90
2022-11-17T09:44:05.901Z,13.90
2022-11-17T09:46:47.105Z,13.90
2022-11-17T09:49:23.860Z,14.00
2022-11-17T09:51:57.528Z,14.00
2022-11-17T09:54:31.093Z,14.10
2022-11-17T09:57:00.152Z,14.10
2022-11-17T09:59:29.793Z,14.10
2022-11-17T10:01:59.083Z,14.10
2022-11-17T10:04:30.028Z,14.20
2022-11-17T10:06:59.275Z,14.40
2022-11-17T10:09:38.396Z,14.40
2022-11-17T10:12:16.462Z,14.50
2022-11-17T10:14:48.895Z,14.50
2022-11-17T10:17:18.124Z,14.50
2022-11-17T10:19:48.398Z,14.60
2022-11-17T10:22:28.813Z,14.40
2022-11-17T10:24:59.745Z,14.50
2022-11-17T10:27:30.205Z,14.30
2022-11-17T10:30:01.952Z,14.20
2022-11-17T10:32:35.197Z,14.10
2022-11-17T10:35:18.896Z,14.10
2022-11-17T10:37:55.358Z,14.00
2022-11-17T10:40:25.999Z,14.00
2022-11-17T10:42:58.891Z,14.10
2022-11-17T10:45:27.040Z,14.10
2022-11-17T10:48:10.369Z,14.30
2022-11-17T10:50:38.201Z,14.40
2022-11-17T10:53:22.824Z,14.60
2022-11-17T10:55:56.609Z,14.70
2022-11-17T10:58:28.240Z,14.60
2022-11-17T11:00:59.823Z,14.40
2022-11-17T11:03:32.218Z,14.40
2022-11-17T11:06:07.221Z,14.40
2022-11-17T11:08:46.768Z,14.40
2022-11-17T11:11:21.595Z,14.40
2022-11-17T11:13:56.766Z,14.30
2022-11-17T11:16:27.409Z,14.30
2022-11-17T11:18:56.718Z,14.20
2022-11-17T11:21:46.868Z,14.30
2022-11-17T11:24:22.557Z,14.40
2022-11-17T11:27:02.748Z,14.20
2022-11-17T11:29:41.413Z,14.30
2022-11-17T11:32:26.349Z,14.30
2022-11-17T11:35:21.800Z,14.20
2022-11-17T11:37:55.384Z,14.30
2022-11-17T11:40:27.856Z,14.30
2022-11-17T11:42:58.779Z,14.20
2022-11-17T11:45:45.420Z,14.40
2022-11-17T11:48:17.516Z,14.50
2022-11-17T11:50:53.984Z,14.60
2022-11-17T11:53:29.541Z,14.40
2022-11-17T11:56:09.321Z,14.50
2022-11-17T11:58:41.376Z,14.60
2022-11-17T12:01:12.708Z,14.70
2022-11-17T12:03:49.253Z,14.70
2022-11-17T12:06:43.185Z,14.50
2022-11-17T12:09:25.082Z,14.40
2022-11-17T12:12:01.680Z,14.60
2022-11-17T12:14:31.053Z,14.70
2022-11-17T12:17:06.313Z,14.80
2022-11-17T12:19:52.504Z,14.80
2022-11-17T12:22:47.717Z,14.90
2022-11-17T12:25:19.417Z,14.70
2022-11-17T12:27:50.080Z,14.50
2022-11-17T12:30:47.628Z,14.50
2022-11-17T12:33:15.648Z,14.40
2022-11-17T12:35:43.984Z,14.40
2022-11-17T12:38:42.345Z,14.60
2022-11-17T12:41:11.420Z,14.70
2022-11-17T12:43:39.154Z,14.90
2022-11-17T12:46:21.216Z,14.90
2022-11-17T12:48:58.248Z,14.90
2022-11-17T12:51:34.304Z,14.80
2022-11-17T12:54:13.300Z,14.80
2022-11-17T12:56:50.076Z,15.00
2022-11-17T12:59:42.389Z,15.00
2022-11-17T13:02:23.728Z,15.00
2022-11-17T13:04:55.050Z,14.90
2022-11-17T13:07:28.029Z,14.80
2022-11-17T13:09:57.760Z,14.50
2022-11-17T13:12:28.790Z,14.40
2022-11-17T13:14:58.420Z,14.30
2022-11-17T13:17:29.519Z,14.10
2022-11-17T13:20:00.652Z,14.10
2022-11-17T13:22:33.591Z,14.00
2022-11-17T13:25:19.788Z,14.00
2022-11-17T13:27:54.920Z,13.80
2022-11-17T13:30:27.304Z,13.80
2022-11-17T13:32:57.068Z,13.70
2022-11-17T13:35:27.040Z,13.80
2022-11-17T13:38:04.976Z,13.80
2022-11-17T13:40:35.404Z,13.90
2022-11-17T13:43:05.273Z,13.90
2022-11-17T13:45:33.159Z,13.90
2022-11-17T13:48:01.136Z,13.80
2022-11-17T13:50:39.795Z,13.70
2022-11-17T13:53:23.472Z,13.70
2022-11-17T13:55:52.677Z,13.70
2022-11-17T13:58:29.069Z,13.70
2022-11-17T14:01:00.245Z,13.70
2022-11-17T14:03:37.488Z,13.80
2022-11-17T14:06:08.195Z,13.80
2022-11-17T14:08:37.725Z,13.80
2022-11-17T14:11:08.826Z,13.80
2022-11-17T14:13:42.292Z,13.90
2022-11-17T14:16:21.046Z,13.90
2022-11-17T14:18:57.903Z,13.90
2022-11-17T14:21:25.772Z,13.90
2022-11-17T14:24:05.268Z,13.90
2022-11-17T14:26:34.138Z,13.90
2022-11-17T14:29:03.757Z,13.80
2022-11-17T14:31:33.160Z,13.70
2022-11-17T14:34:00.880Z,13.70
2022-11-17T14:36:29.026Z,13.60
2022-11-17T14:38:56.758Z,13.60
2022-11-17T14:41:24.420Z,13.60
2022-11-17T14:43:52.157Z,13.60
2022-11-17T14:46:23.977Z,13.50
2022-11-17T14:48:52.434Z,13.50
2022-11-17T14:51:21.173Z,13.50
2022-11-17T14:53:49.523Z,13.50
2022-11-17T14:56:19.453Z,13.30
2022-11-17T14:58:48.050Z,13.30
2022-11-17T15:01:18.691Z,13.20
2022-11-17T15:03:47.793Z,13.10
2022-11-17T15:06:19.935Z,13.10
2022-11-17T15:08:48.169Z,13.10
2022-11-17T15:11:17.978Z,13.10
2022-11-17T15:13:45.889Z,13.10
2022-11-17T15:16:13.797Z,13.10
2022-11-17T15:18:41.573Z,13.10
2022-11-17T15:21:11.441Z,13.10
2022-11-17T15:23:41.969Z,13.10
2022-11-17T15:26:13.497Z,13.10
2022-11-17T15:28:41.691Z,13.10
2022-11-17T15:31:11.893Z,13.20
2022-11-17T15:33:41.237Z,13.30
2022-11-17T15:36:12.977Z,13.30
2022-11-17T15:38:41.336Z,13.30
2022-11-17T15:41:11.339Z,13.10
2022-11-17T15:43:41.500Z,13.10
2022-11-17T15:46:11.304Z,13.00
2022-11-17T15:48:42.785Z,13.00
2022-11-17T15:51:14.420Z,12.90
2022-11-17T15:53:43.420Z,13.00
2022-11-17T15:56:15.174Z,12.80
2022-11-17T15:58:44.361Z,12.70
2022-11-17T16:01:14.226Z,12.80
2022-11-17T16:03:43.325Z,12.80
2022-11-17T16:06:13.276Z,12.80
2022-11-17T16:08:41.284Z,12.70
2022-11-17T16:11:10.195Z,12.70
2022-11-17T16:13:38.076Z,12.60
2022-11-17T16:16:06.733Z,12.60
2022-11-17T16:18:35.109Z,12.70
2022-11-17T16:21:05.183Z,12.60
2022-11-17T16:23:40.048Z,12.50
2022-11-17T16:26:08.649Z,12.40
2022-11-17T16:28:36.572Z,12.30
2022-11-17T16:31:14.437Z,12.10
2022-11-17T16:33:47.158Z,12.20
2022-11-17T16:36:14.914Z,12.20
2022-11-17T16:38:59.833Z,12.30
2022-11-17T16:41:31.674Z,12.30
2022-11-17T16:43:59.651Z,12.30
2022-11-17T16:46:29.521Z,12.30
2022-11-17T16:49:00.949Z,12.30
2022-11-17T16:51:29.070Z,12.20
2022-11-17T16:54:00.028Z,12.10
2022-11-17T16:56:28.357Z,12.10
2022-11-17T16:58:56.415Z,12.10
2022-11-17T17:01:26.018Z,12.20
2022-11-17T17:03:56.933Z,12.10
2022-11-17T17:06:24.668Z,12.00
2022-11-17T17:08:54.977Z,12.00
2022-11-17T17:11:24.932Z,11.90
2022-11-17T17:13:52.607Z,12.10
2022-11-17T17:16:21.022Z,12.20
2022-11-17T17:18:49.413Z,12.20
2022-11-17T17:21:19.125Z,12.30
2022-11-17T17:23:46.909Z,12.40
2022-11-17T17:26:18.100Z,12.50
2022-11-17T17:28:49.113Z,12.50
2022-11-17T17:31:22.605Z,12.50
2022-11-17T17:33:51.307Z,12.50
2022-11-17T17:36:20.663Z,12.60
2022-11-17T17:38:54.931Z,12.60
2022-11-17T17:41:25.625Z,12.70
2022-11-17T17:43:57.744Z,12.80
2022-11-17T17:46:25.995Z,12.80
2022-11-17T17:48:53.973Z,12.80
2022-11-17T17:51:24.898Z,12.80
2022-11-17T17:53:53.524Z,12.80
2022-11-17T17:56:22.264Z,12.70
2022-11-17T17:58:51.608Z,12.70
2022-11-17T18:01:24.113Z,12.60
2022-11-17T18:03:53.628Z,12.60
2022-11-17T18:06:22.896Z,12.60
2022-11-17T18:08:51.106Z,12.60
2022-11-17T18:11:21.098Z,12.60
2022-11-17T18:13:50.213Z,12.60
2022-11-17T18:16:21.256Z,12.60
2022-11-17T18:18:49.648Z,12.60
2022-11-17T18:21:19.871Z,12.70
2022-11-17T18:23:47.673Z,12.70
2022-11-17T18:26:17.328Z,12.70
2022-11-17T18:28:50.207Z,12.80
2022-11-17T18:31:17.938Z,12.80
2022-11-17T18:33:51.239Z,12.90
2022-11-17T18:36:19.497Z,12.70
2022-11-17T18:38:47.457Z,12.60
2022-11-17T18:41:17.432Z,12.30
2022-11-17T18:43:45.336Z,12.00
2022-11-17T18:46:14.553Z,11.70
2022-11-17T18:48:44.232Z,11.40
2022-11-17T18:51:19.539Z,11.30
2022-11-17T18:53:48.716Z,11.10
2022-11-17T18:56:19.118Z,11.00
2022-11-17T18:58:47.346Z,10.90
2022-11-17T19:01:17.000Z,10.80
2022-11-17T19:03:46.833Z,10.60
2022-11-17T19:06:17.398Z,10.50
2022-11-17T19:08:45.948Z,10.40
2022-11-17T19:11:13.988Z,10.30
2022-11-17T19:13:42.950Z,10.20
2022-11-17T19:16:12.662Z,10.20
2022-11-17T19:18:41.374Z,10.10
2022-11-17T19:21:11.267Z,10.00
2022-11-17T19:23:42.590Z,9.90
2022-11-17T19:26:13.265Z,9.80
2022-11-17T19:28:41.592Z,9.80
2022-11-17T19:31:11.164Z,9.70
2022-11-17T19:33:40.756Z,9.70
2022-11-17T19:36:11.142Z,9.70
2022-11-17T19:38:41.242Z,9.70
2022-11-17T19:41:10.413Z,9.60
2022-11-17T19:43:44.579Z,9.60
2022-11-17T19:46:14.821Z,9.60
2022-11-17T19:48:44.378Z,9.60
2022-11-17T19:51:15.537Z,9.60
2022-11-17T19:53:44.952Z,9.70
2022-11-17T19:56:13.145Z,9.80
2022-11-17T19:58:41.105Z,9.70
2022-11-17T20:01:11.172Z,9.80
2022-11-17T20:03:39.492Z,9.80
2022-11-17T20:06:08.769Z,9.70
2022-11-17T20:08:36.786Z,9.70
2022-11-17T20:11:08.217Z,9.60
2022-11-17T20:13:37.252Z,9.60
2022-11-17T20:16:11.694Z,9.50
2022-11-17T20:18:40.669Z,9.50
2022-11-17T20:21:09.622Z,9.40
2022-11-17T20:23:38.997Z,9.40
2022-11-17T20:26:10.286Z,9.50
2022-11-17T20:28:39.799Z,9.50
2022-11-17T20:31:09.733Z,9.50
2022-11-17T20:33:38.045Z,9.50
2022-11-17T20:36:06.749Z,9.60
2022-11-17T20:38:34.692Z,9.60
2022-11-17T20:41:03.229Z,9.70
2022-11-17T20:43:33.310Z,9.70
2022-11-17T20:46:01.880Z,9.70
2022-11-17T20:48:30.169Z,9.70
2022-11-17T20:50:58.555Z,9.70
2022-11-17T20:53:26.700Z,9.70
2022-11-17T20:55:56.675Z,9.80
2022-11-17T20:58:24.612Z,9.80
2022-11-17T21:00:53.941Z,9.70
2022-11-17T21:03:22.266Z,9.70
2022-11-17T21:05:58.918Z,9.60
2022-11-17T21:08:28.538Z,9.70
2022-11-17T21:10:56.730Z,9.60
2022-11-17T21:13:24.991Z,9.60
2022-11-17T21:16:05.507Z,9.60
2022-11-17T21:18:33.320Z,9.70
2022-11-17T21:21:02.742Z,9.70
2022-11-17T21:23:30.518Z,9.80
2022-11-17T21:25:58.400Z,9.80
2022-11-17T21:28:27.208Z,9.80
2022-11-17T21:30:55.037Z,9.70
2022-11-17T21:33:24.349Z,9.70
2022-11-17T21:35:52.149Z,9.70
2022-11-17T21:38:19.851Z,9.70
2022-11-17T21:40:47.548Z,9.80
2022-11-17T21:43:15.284Z,9.80
2022-11-17T21:45:42.957Z,9.90
2022-11-17T21:48:10.676Z,10.00
2022-11-17T21:50:44.084Z,10.10
2022-11-17T21:53:11.850Z,10.00
2022-11-17T21:55:39.602Z,10.10
2022-11-17T21:58:07.311Z,10.10
2022-11-17T22:00:35.066Z,10.10
2022-11-17T22:03:02.781Z,9.90
2022-11-17T22:05:30.709Z,9.80
2022-11-17T22:07:59.926Z,9.80
2022-11-17T22:10:27.624Z,9.80
2022-11-17T22:12:55.329Z,9.70
2022-11-17T22:15:23.031Z,9.70
2022-11-17T22:17:50.766Z,9.80
2022-11-17T22:20:18.581Z,9.90
2022-11-17T22:22:47.558Z,9.90
2022-11-17T22:25:42.910Z,9.90
2022-11-17T22:28:04.545Z,9.90
2022-11-17T22:30:32.236Z,9.90
2022-11-17T22:32:59.894Z,9.90
2022-11-17T22:35:27.755Z,9.80
2022-11-17T22:37:55.721Z,9.80
2022-11-17T22:40:24.734Z,9.70
2022-11-17T22:42:53.436Z,9.80
2022-11-17T22:45:21.301Z,9.80
2022-11-17T22:47:49.076Z,9.80
2022-11-17T22:50:17.341Z,9.90
2022-11-17T22:52:45.057Z,10.00
2022-11-17T22:55:12.849Z,10.10
2022-11-17T22:57:41.869Z,10.10
2022-11-17T23:00:10.768Z,10.20
2022-11-17T23:02:40.281Z,10.30
2022-11-17T23:05:08.197Z,10.20
2022-11-17T23:07:35.991Z,10.20
2022-11-17T23:10:03.892Z,9.90
2022-11-17T23:12:31.848Z,9.70
2022-11-17T23:15:00.849Z,9.60
2022-11-17T23:17:28.616Z,9.50
2022-11-17T23:19:56.388Z,9.60
2022-11-17T23:22:24.122Z,9.50
2022-11-17T23:24:51.802Z,9.50
2022-11-17T23:27:20.160Z,9.50
2022-11-17T23:29:47.848Z,9.50
2022-11-17T23:32:16.871Z,9.50
2022-11-17T23:34:44.548Z,9.40
2022-11-17T23:37:12.248Z,9.40
2022-11-17T23:39:39.999Z,9.40
2022-11-17T23:42:07.976Z,9.40
2022-11-17T23:44:35.624Z,9.40
2022-11-17T23:47:03.300Z,9.40
2022-11-17T23:49:32.328Z,9.40
2022-11-17T23:51:59.996Z,9.50
2022-11-17T23:54:28.146Z,9.40
2022-11-17T23:56:55.869Z,9.50
2022-11-17T23:59:23.582Z,9.40
